Waterdown, Canada
Current Conditions -  °F | °C
As of 3:00 AM on Thursday 27 Nov 2014 (Local Time) from CYHM Reporting Station
Light Snow Light Snow  
Wind Chill: 28°   Ceiling: 4100
Heat Index: 28°   Visibility: 15mi
Dew Point: 25°   Wind: 0mph
Humidity: 86%   Direction: NA
Pressure: 30.05"   Gusts: NA
Location:  43.33°N, 79.88°W
Report Text: CYHM 270800Z 00000KT 15SM -SN FEW018 OVC041 M02/M04 A3005 RMK CF2SC6 SLP184
Loading
Personal Weather Stations






























Interactive Weather Map New forecast layout! Learn more

10-Day Weather Forecast

Advertisements
Track Severe Weather on mobile